Time;durP1;ratioP1;P1;durP2;ratioP2;P2;SDS_P1;SDS_P2;PMS_P1;PMS_P2;Temp;Humidity;BMP_temperature;BMP_pressure;BME280_temperature;BME280_humidity;BME280_pressure;Samples;Min_cycle;Max_cycle;Signal;HPM_P1;HPM_P2
2023/03/09 00:01:45;;;;;;;1.90;1.33;;;;;;;;;;6100180;23;20026;-80
2023/03/09 00:04:13;;;;;;;2.35;1.20;;;;;;;;;;6126243;23;20033;-80
2023/03/09 00:06:41;;;;;;;4.95;1.30;;;;;;;;;;6128718;23;20088;-80
2023/03/09 00:09:08;;;;;;;4.47;1.40;;;;;;;;;;6128264;23;20043;-79
2023/03/09 00:11:34;;;;;;;2.35;1.25;;;;;;;;;;6124311;23;20034;-82
2023/03/09 00:14:01;;;;;;;2.42;1.67;;;;;;;;;;6104806;23;20034;-79
2023/03/09 00:16:29;;;;;;;4.25;1.55;;;;;;;;;;6133415;23;20040;-79
2023/03/09 00:18:59;;;;;;;6.65;1.50;;;;;;;;;;6132389;23;20026;-79
2023/03/09 00:21:41;;;;;;;3.65;1.40;;;;;;;;;;6133522;23;20108;-79
2023/03/09 00:24:08;;;;;;;6.28;1.80;;;;;;;;;;6118495;23;20025;-79
2023/03/09 00:26:38;;;;;;;2.55;1.58;;;;;;;;;;6135765;23;20114;-79
2023/03/09 00:29:07;;;;;;;3.25;1.45;;;;;;;;;;6132431;23;20029;-79
2023/03/09 00:31:37;;;;;;;2.92;1.70;;;;;;;;;;6134210;23;20026;-79
2023/03/09 00:34:04;;;;;;;4.30;1.38;;;;;;;;;;6110837;23;20032;-79
2023/03/09 00:36:31;;;;;;;4.20;2.08;;;;;;;;;;6133567;23;20032;-79
2023/03/09 00:38:59;;;;;;;3.30;1.40;;;;;;;;;;6132935;23;20026;-79
2023/03/09 00:41:28;;;;;;;1.45;0.80;;;;;;;;;;6106476;23;20029;-79
2023/03/09 00:43:54;;;;;;;4.30;0.80;;;;;;;;;;6133707;23;20026;-83
2023/03/09 00:46:21;;;;;;;3.13;0.82;;;;;;;;;;6127709;23;20030;-84
2023/03/09 00:48:48;;;;;;;1.33;0.90;;;;;;;;;;6125253;23;20037;-79
2023/03/09 00:51:15;;;;;;;3.80;0.95;;;;;;;;;;6124718;23;20081;-79
2023/03/09 00:53:42;;;;;;;3.65;0.80;;;;;;;;;;6124882;23;20337;-79
2023/03/09 00:56:12;;;;;;;3.33;1.20;;;;;;;;;;6100768;23;20098;-78
2023/03/09 00:58:39;;;;;;;1.65;0.85;;;;;;;;;;6123693;23;20034;-78
2023/03/09 01:01:07;;;;;;;2.20;0.80;;;;;;;;;;6125601;23;20026;-78
2023/03/09 01:03:35;;;;;;;4.00;1.10;;;;;;;;;;6125109;23;20077;-78
2023/03/09 01:06:02;;;;;;;3.33;1.00;;;;;;;;;;6102489;23;20025;-78
2023/03/09 01:08:29;;;;;;;2.83;0.90;;;;;;;;;;6126253;23;20044;-78
2023/03/09 01:10:55;;;;;;;1.77;1.65;;;;;;;;;;6126125;23;20022;-78
2023/03/09 01:13:22;;;;;;;0.57;0.40;;;;;;;;;;6126180;23;20030;-78
2023/03/09 01:15:49;;;;;;;0.65;0.50;;;;;;;;;;6125938;23;20034;-78
2023/03/09 01:18:16;;;;;;;0.93;0.52;;;;;;;;;;6125247;23;20026;-78
2023/03/09 01:20:43;;;;;;;2.25;0.52;;;;;;;;;;6124944;23;20022;-79
2023/03/09 01:23:09;;;;;;;0.52;0.22;;;;;;;;;;6125131;23;20105;-79
2023/03/09 01:25:36;;;;;;;0.20;0.20;;;;;;;;;;6125189;23;20029;-79
2023/03/09 01:28:03;;;;;;;0.88;0.28;;;;;;;;;;6126503;23;20026;-77
2023/03/09 01:30:31;;;;;;;0.90;0.20;;;;;;;;;;6125230;23;20025;-79
2023/03/09 01:32:57;;;;;;;1.25;0.30;;;;;;;;;;6125139;23;20036;-79
2023/03/09 01:35:24;;;;;;;0.95;0.40;;;;;;;;;;6125315;23;20105;-79
2023/03/09 01:37:51;;;;;;;0.90;0.22;;;;;;;;;;6100648;23;20025;-79
2023/03/09 01:40:21;;;;;;;2.47;0.30;;;;;;;;;;6100692;23;20032;-78
2023/03/09 01:42:59;;;;;;;0.25;0.17;;;;;;;;;;6125126;23;20033;-79
2023/03/09 01:45:29;;;;;;;0.10;0.10;;;;;;;;;;6148710;23;20026;-80
2023/03/09 01:47:59;;;;;;;1.05;0.30;;;;;;;;;;6127667;23;20037;-79
2023/03/09 01:50:29;;;;;;;0.50;0.10;;;;;;;;;;6126729;23;20479;-79
2023/03/09 01:52:57;;;;;;;1.02;0.20;;;;;;;;;;6104431;23;20030;-79
2023/03/09 01:55:27;;;;;;;1.15;0.30;;;;;;;;;;6127369;23;20025;-78
2023/03/09 01:57:56;;;;;;;0.20;0.10;;;;;;;;;;6126019;23;20033;-79
2023/03/09 02:00:24;;;;;;;0.10;0.10;;;;;;;;;;6100122;23;20026;-78
2023/03/09 02:03:02;;;;;;;1.30;0.45;;;;;;;;;;6125383;23;20090;-79
2023/03/09 02:05:35;;;;;;;2.60;0.30;;;;;;;;;;6125587;23;20033;-79
2023/03/09 02:08:03;;;;;;;0.50;0.30;;;;;;;;;;6126182;23;20528;-80
2023/03/09 02:10:32;;;;;;;0.77;0.20;;;;;;;;;;6125854;23;20346;-80
2023/03/09 02:13:03;;;;;;;1.70;0.30;;;;;;;;;;6125691;23;20030;-80
2023/03/09 02:15:30;;;;;;;0.75;0.25;;;;;;;;;;6126226;23;20022;-80
2023/03/09 02:17:56;;;;;;;0.50;0.28;;;;;;;;;;6126267;23;20034;-80
2023/03/09 02:20:32;;;;;;;0.43;0.30;;;;;;;;;;6125108;23;20026;-80
2023/03/09 02:22:59;;;;;;;0.55;0.20;;;;;;;;;;6125822;23;20037;-80
2023/03/09 02:25:38;;;;;;;0.00;0.00;;;;;;;;;;6125703;23;20028;-79
2023/03/09 02:28:05;;;;;;;1.15;0.20;;;;;;;;;;6125042;23;20058;-79
2023/03/09 02:30:35;;;;;;;0.40;0.17;;;;;;;;;;6126457;23;20029;-78
2023/03/09 02:33:25;;;;;;;1.27;0.10;;;;;;;;;;6126362;23;20536;-79
2023/03/09 02:35:58;;;;;;;0.60;0.60;;;;;;;;;;6125815;23;20393;-80
2023/03/09 02:38:25;;;;;;;0.43;0.10;;;;;;;;;;6125204;23;20026;-80
2023/03/09 02:40:53;;;;;;;0.25;0.08;;;;;;;;;;6147358;23;20378;-80
2023/03/09 02:43:22;;;;;;;0.32;0.10;;;;;;;;;;6123175;23;20045;-80
2023/03/09 02:45:49;;;;;;;0.38;0.10;;;;;;;;;;6123767;23;20033;-80
2023/03/09 02:48:16;;;;;;;0.10;0.10;;;;;;;;;;6124430;23;20026;-80
2023/03/09 02:50:44;;;;;;;0.10;0.10;;;;;;;;;;6148161;23;20056;-79
2023/03/09 02:53:14;;;;;;;0.30;0.20;;;;;;;;;;6124844;23;20426;-80
2023/03/09 02:55:41;;;;;;;0.22;0.10;;;;;;;;;;6127218;23;20022;-80
2023/03/09 02:58:11;;;;;;;0.22;0.10;;;;;;;;;;6125307;23;20033;-80
2023/03/09 03:00:38;;;;;;;0.63;0.10;;;;;;;;;;6123433;23;20022;-80
2023/03/09 03:03:05;;;;;;;1.13;0.17;;;;;;;;;;6149659;23;20033;-81
2023/03/09 03:05:32;;;;;;;0.20;0.10;;;;;;;;;;6126072;23;20030;-80
2023/03/09 03:07:58;;;;;;;1.25;0.20;;;;;;;;;;6101233;23;20399;-79
2023/03/09 03:10:25;;;;;;;0.28;0.10;;;;;;;;;;6125809;23;20030;-80
2023/03/09 03:12:52;;;;;;;1.45;0.10;;;;;;;;;;6101749;23;20036;-79
2023/03/09 03:15:19;;;;;;;1.08;0.10;;;;;;;;;;6126174;23;20040;-80
2023/03/09 03:17:45;;;;;;;0.63;0.20;;;;;;;;;;6101745;23;20034;-81
2023/03/09 03:20:14;;;;;;;2.33;0.22;;;;;;;;;;6125455;23;20021;-81
2023/03/09 03:22:42;;;;;;;0.98;0.13;;;;;;;;;;6123215;23;20029;-81
2023/03/09 03:25:09;;;;;;;0.40;0.20;;;;;;;;;;6122398;23;20399;-81
2023/03/09 03:27:36;;;;;;;0.35;0.10;;;;;;;;;;6099089;23;20464;-81
2023/03/09 03:30:03;;;;;;;0.20;0.20;;;;;;;;;;6100582;23;20088;-81
2023/03/09 03:32:30;;;;;;;0.38;0.20;;;;;;;;;;6125421;23;20030;-81
2023/03/09 03:34:57;;;;;;;0.32;0.10;;;;;;;;;;6127598;23;20033;-82
2023/03/09 03:37:24;;;;;;;1.33;0.08;;;;;;;;;;6163806;23;20030;-79
2023/03/09 03:39:51;;;;;;;0.55;0.20;;;;;;;;;;6124823;23;20054;-81
2023/03/09 03:42:18;;;;;;;1.85;0.35;;;;;;;;;;6127777;23;20033;-80
2023/03/09 03:44:45;;;;;;;1.17;0.20;;;;;;;;;;6127485;23;20032;-81
2023/03/09 03:47:12;;;;;;;0.95;0.28;;;;;;;;;;6127450;23;20034;-84
2023/03/09 03:49:40;;;;;;;0.30;0.22;;;;;;;;;;6130528;23;20014;-83
2023/03/09 03:52:07;;;;;;;1.45;0.30;;;;;;;;;;6130458;23;20030;-83
2023/03/09 03:54:34;;;;;;;0.93;0.40;;;;;;;;;;6152320;23;20030;-83
2023/03/09 03:57:06;;;;;;;1.67;0.35;;;;;;;;;;6126080;23;20029;-83
2023/03/09 03:59:35;;;;;;;2.75;0.50;;;;;;;;;;6126727;23;20030;-80
2023/03/09 04:02:02;;;;;;;4.22;0.80;;;;;;;;;;6124356;23;20030;-81
2023/03/09 04:04:28;;;;;;;1.85;0.52;;;;;;;;;;6124311;23;20367;-80
2023/03/09 04:06:55;;;;;;;1.98;0.32;;;;;;;;;;6122723;23;20036;-81
2023/03/09 04:09:22;;;;;;;1.80;0.50;;;;;;;;;;6122268;23;20030;-80
2023/03/09 04:11:49;;;;;;;0.82;0.30;;;;;;;;;;6143266;23;20078;-80
2023/03/09 04:14:16;;;;;;;2.45;0.50;;;;;;;;;;6143739;23;20077;-81
2023/03/09 04:16:43;;;;;;;4.75;0.68;;;;;;;;;;6130758;23;20080;-80
2023/03/09 04:19:09;;;;;;;3.10;0.63;;;;;;;;;;6103880;23;20376;-80
2023/03/09 04:21:36;;;;;;;2.42;0.60;;;;;;;;;;6147749;23;20026;-80
2023/03/09 04:24:03;;;;;;;5.25;0.80;;;;;;;;;;6122344;23;20032;-80
2023/03/09 04:26:30;;;;;;;2.80;0.50;;;;;;;;;;6122929;23;20113;-80
2023/03/09 04:28:56;;;;;;;1.77;0.55;;;;;;;;;;6098966;23;20076;-80
2023/03/09 04:31:23;;;;;;;4.20;0.90;;;;;;;;;;6122525;23;20106;-80
2023/03/09 04:33:50;;;;;;;2.78;0.77;;;;;;;;;;6122374;23;20026;-79
2023/03/09 04:36:17;;;;;;;4.32;1.13;;;;;;;;;;6121983;23;20029;-80
2023/03/09 04:38:43;;;;;;;8.25;1.33;;;;;;;;;;6122140;23;20055;-79
2023/03/09 04:41:13;;;;;;;6.07;1.13;;;;;;;;;;6120699;23;20014;-79
2023/03/09 04:43:40;;;;;;;7.18;1.20;;;;;;;;;;6121648;23;20032;-78
2023/03/09 04:46:07;;;;;;;6.90;1.33;;;;;;;;;;6121843;23;20030;-78
2023/03/09 04:48:34;;;;;;;6.03;1.23;;;;;;;;;;6121553;23;20057;-78
2023/03/09 04:51:01;;;;;;;8.75;1.15;;;;;;;;;;6121278;23;20060;-77
2023/03/09 04:53:28;;;;;;;6.70;1.10;;;;;;;;;;6097568;23;20105;-77
2023/03/09 04:55:54;;;;;;;7.32;1.40;;;;;;;;;;6121949;23;20341;-78
2023/03/09 04:58:21;;;;;;;4.32;1.00;;;;;;;;;;6121907;23;20080;-79
2023/03/09 05:00:48;;;;;;;4.40;1.20;;;;;;;;;;6121752;23;20368;-79
2023/03/09 05:03:14;;;;;;;6.47;1.20;;;;;;;;;;6122217;23;20018;-79
2023/03/09 05:05:41;;;;;;;6.32;1.40;;;;;;;;;;6122056;23;20040;-78
2023/03/09 05:08:08;;;;;;;4.78;1.23;;;;;;;;;;6097211;23;20037;-79
2023/03/09 05:10:38;;;;;;;6.00;1.65;;;;;;;;;;6126253;23;20022;-82
2023/03/09 05:13:05;;;;;;;6.85;1.50;;;;;;;;;;6097884;23;20022;-80
2023/03/09 05:15:31;;;;;;;6.13;1.40;;;;;;;;;;6123906;23;20118;-78
2023/03/09 05:17:58;;;;;;;7.22;1.23;;;;;;;;;;6124027;23;20030;-78
2023/03/09 05:20:26;;;;;;;6.45;0.95;;;;;;;;;;6101424;23;20046;-78
2023/03/09 05:22:54;;;;;;;5.75;1.50;;;;;;;;;;6100134;23;20467;-79
2023/03/09 05:25:22;;;;;;;9.90;1.40;;;;;;;;;;6126473;23;20036;-79
2023/03/09 05:27:49;;;;;;;7.68;1.98;;;;;;;;;;6126058;23;20057;-79
2023/03/09 05:30:16;;;;;;;5.53;0.95;;;;;;;;;;6125628;23;20056;-79
2023/03/09 05:32:43;;;;;;;8.38;1.40;;;;;;;;;;6126359;23;20116;-79
2023/03/09 05:35:10;;;;;;;6.20;1.75;;;;;;;;;;6124750;23;20056;-79
2023/03/09 05:37:37;;;;;;;6.95;1.30;;;;;;;;;;6125261;23;20021;-79
2023/03/09 05:40:04;;;;;;;4.25;1.02;;;;;;;;;;6124283;23;20030;-79
2023/03/09 05:42:31;;;;;;;7.38;2.20;;;;;;;;;;6125403;23;20029;-79
2023/03/09 05:45:00;;;;;;;5.70;1.50;;;;;;;;;;6125256;23;20030;-79
2023/03/09 05:47:26;;;;;;;4.72;1.25;;;;;;;;;;6124959;23;20464;-78
2023/03/09 05:49:54;;;;;;;6.70;1.10;;;;;;;;;;6124220;23;20040;-79
2023/03/09 05:52:33;;;;;;;5.88;1.48;;;;;;;;;;6129170;23;20030;-83
2023/03/09 05:55:04;;;;;;;7.32;1.20;;;;;;;;;;6125599;23;20040;-79
2023/03/09 05:57:31;;;;;;;7.50;1.55;;;;;;;;;;6123575;23;20022;-80
2023/03/09 05:59:57;;;;;;;7.30;1.50;;;;;;;;;;6098992;23;20026;-80
2023/03/09 06:02:24;;;;;;;8.30;1.52;;;;;;;;;;6124058;23;20342;-80
2023/03/09 06:04:51;;;;;;;6.97;1.83;;;;;;;;;;6148441;23;20089;-79
2023/03/09 06:07:18;;;;;;;4.65;1.67;;;;;;;;;;6123675;23;20128;-80
2023/03/09 06:09:45;;;;;;;5.93;1.52;;;;;;;;;;6124219;23;20033;-79
2023/03/09 06:12:12;;;;;;;4.93;1.00;;;;;;;;;;6123834;23;20032;-79
2023/03/09 06:14:38;;;;;;;6.40;1.55;;;;;;;;;;6122896;23;20034;-79
2023/03/09 06:17:05;;;;;;;7.72;1.67;;;;;;;;;;6123409;23;20026;-79
2023/03/09 06:19:32;;;;;;;7.07;1.55;;;;;;;;;;6122537;23;20029;-79
2023/03/09 06:21:59;;;;;;;7.72;1.63;;;;;;;;;;6121614;23;20608;-78
2023/03/09 06:24:25;;;;;;;10.55;1.63;;;;;;;;;;6122346;23;20530;-79
2023/03/09 06:26:52;;;;;;;6.00;1.40;;;;;;;;;;6121848;23;20081;-77
2023/03/09 06:29:19;;;;;;;7.32;1.60;;;;;;;;;;6098308;23;20524;-77
2023/03/09 06:31:45;;;;;;;6.30;1.50;;;;;;;;;;6098859;23;20329;-78
2023/03/09 06:34:12;;;;;;;6.68;1.20;;;;;;;;;;6101114;23;20105;-76
2023/03/09 06:36:39;;;;;;;7.18;2.20;;;;;;;;;;6127567;23;20302;-84
2023/03/09 06:39:07;;;;;;;6.15;1.35;;;;;;;;;;6129019;23;20085;-80
2023/03/09 06:41:34;;;;;;;9.35;1.30;;;;;;;;;;6103149;23;20048;-80
2023/03/09 06:44:01;;;;;;;10.13;2.03;;;;;;;;;;6124550;23;20105;-75
2023/03/09 06:46:27;;;;;;;8.40;1.30;;;;;;;;;;6123706;23;20053;-78
2023/03/09 06:48:54;;;;;;;5.72;1.13;;;;;;;;;;6147626;23;20026;-78
2023/03/09 06:51:21;;;;;;;7.03;1.83;;;;;;;;;;6122060;23;20097;-74
2023/03/09 06:53:48;;;;;;;6.28;1.42;;;;;;;;;;6098950;23;20105;-78
2023/03/09 06:56:15;;;;;;;6.72;1.55;;;;;;;;;;6099295;23;20021;-79
2023/03/09 06:58:42;;;;;;;6.35;1.50;;;;;;;;;;6125026;23;20077;-79
2023/03/09 07:01:10;;;;;;;6.18;1.20;;;;;;;;;;6108262;23;20025;-79
2023/03/09 07:03:38;;;;;;;7.57;2.30;;;;;;;;;;6127397;23;20030;-78
2023/03/09 07:06:05;;;;;;;11.18;3.05;;;;;;;;;;6108762;23;20456;-78
2023/03/09 07:08:32;;;;;;;10.35;2.08;;;;;;;;;;6126753;23;20025;-78
2023/03/09 07:10:59;;;;;;;4.25;1.17;;;;;;;;;;6102264;23;20029;-78
2023/03/09 07:13:25;;;;;;;10.02;2.65;;;;;;;;;;6127872;23;20117;-78
2023/03/09 07:15:52;;;;;;;4.85;1.73;;;;;;;;;;6127745;23;20026;-79
2023/03/09 07:18:19;;;;;;;4.72;1.17;;;;;;;;;;6103406;23;20022;-78
2023/03/09 07:20:46;;;;;;;7.30;1.70;;;;;;;;;;6126965;23;20029;-78
2023/03/09 07:23:12;;;;;;;8.60;1.30;;;;;;;;;;6126779;23;20070;-78
2023/03/09 07:25:39;;;;;;;5.65;1.58;;;;;;;;;;6126343;23;20105;-78
2023/03/09 07:28:07;;;;;;;4.85;1.20;;;;;;;;;;6126122;23;20026;-78
2023/03/09 07:30:38;;;;;;;9.27;1.95;;;;;;;;;;6123897;23;20026;-77
2023/03/09 07:33:05;;;;;;;5.03;1.20;;;;;;;;;;6126168;23;20033;-80
2023/03/09 07:35:34;;;;;;;5.82;1.30;;;;;;;;;;6125665;23;20026;-80
2023/03/09 07:38:01;;;;;;;7.30;1.48;;;;;;;;;;6124008;23;20030;-79
2023/03/09 07:40:27;;;;;;;4.88;1.17;;;;;;;;;;6124003;23;20037;-79
2023/03/09 07:42:54;;;;;;;7.25;1.95;;;;;;;;;;6125556;23;20084;-80
2023/03/09 07:45:22;;;;;;;5.50;1.92;;;;;;;;;;6129718;23;20105;-80
2023/03/09 07:47:49;;;;;;;3.92;1.20;;;;;;;;;;6124710;23;20113;-80
2023/03/09 07:50:16;;;;;;;6.30;1.48;;;;;;;;;;6122593;23;20360;-80
2023/03/09 07:52:43;;;;;;;3.70;1.17;;;;;;;;;;6101247;23;20026;-80
2023/03/09 07:55:11;;;;;;;7.63;1.15;;;;;;;;;;6102433;23;20101;-80
2023/03/09 07:57:38;;;;;;;4.22;1.05;;;;;;;;;;6100025;23;20085;-80
2023/03/09 08:00:11;;;;;;;6.75;1.10;;;;;;;;;;6099960;23;20365;-80
2023/03/09 08:02:41;;;;;;;5.40;1.08;;;;;;;;;;6123607;23;20050;-79
2023/03/09 08:05:10;;;;;;;4.60;1.05;;;;;;;;;;6124832;23;20083;-80
2023/03/09 08:07:37;;;;;;;2.50;1.10;;;;;;;;;;6125625;23;20052;-81
2023/03/09 08:10:04;;;;;;;2.50;1.35;;;;;;;;;;6125024;23;20040;-80
2023/03/09 08:12:31;;;;;;;5.68;1.10;;;;;;;;;;6124376;23;20018;-81
2023/03/09 08:14:58;;;;;;;5.57;1.35;;;;;;;;;;6126618;23;20052;-78
2023/03/09 08:17:25;;;;;;;2.42;0.75;;;;;;;;;;6105510;23;20026;-80
2023/03/09 08:19:53;;;;;;;4.13;1.70;;;;;;;;;;6133295;23;20032;-80
2023/03/09 08:22:19;;;;;;;5.50;0.93;;;;;;;;;;6126369;23;20018;-80
2023/03/09 08:24:46;;;;;;;5.97;0.90;;;;;;;;;;6099439;23;20372;-80
2023/03/09 08:27:13;;;;;;;4.35;0.98;;;;;;;;;;6122631;23;20137;-80
2023/03/09 08:29:41;;;;;;;4.57;1.15;;;;;;;;;;6123222;23;20037;-79
2023/03/09 08:32:09;;;;;;;2.22;0.80;;;;;;;;;;6123244;23;20645;-80
2023/03/09 08:34:39;;;;;;;8.52;2.15;;;;;;;;;;6102594;23;20085;-79
2023/03/09 08:37:06;;;;;;;4.70;1.10;;;;;;;;;;6127087;23;20036;-78
2023/03/09 08:39:33;;;;;;;4.20;0.98;;;;;;;;;;6127703;23;20112;-82
2023/03/09 08:41:59;;;;;;;1.90;0.57;;;;;;;;;;6124558;23;20468;-80
2023/03/09 08:44:26;;;;;;;4.35;0.98;;;;;;;;;;6101894;23;20032;-79
2023/03/09 08:46:53;;;;;;;3.28;0.98;;;;;;;;;;6123072;23;20030;-77
2023/03/09 08:49:19;;;;;;;5.20;0.80;;;;;;;;;;6098447;23;20030;-76
2023/03/09 08:51:47;;;;;;;4.97;1.38;;;;;;;;;;6121091;23;20025;-76
2023/03/09 08:54:14;;;;;;;3.70;1.10;;;;;;;;;;6121862;23;20029;-81
2023/03/09 08:56:41;;;;;;;3.35;0.80;;;;;;;;;;6099097;23;20033;-81
2023/03/09 08:59:07;;;;;;;2.88;1.05;;;;;;;;;;6122619;23;20036;-81
2023/03/09 09:01:34;;;;;;;3.38;0.65;;;;;;;;;;6121425;23;20028;-78
2023/03/09 09:04:01;;;;;;;4.80;0.47;;;;;;;;;;6105659;23;20036;-80
2023/03/09 09:06:39;;;;;;;2.15;1.20;;;;;;;;;;6137316;23;20747;-81
2023/03/09 09:09:07;;;;;;;2.83;0.73;;;;;;;;;;6126020;23;20056;-80
2023/03/09 09:11:34;;;;;;;5.15;0.75;;;;;;;;;;6125750;23;20032;-79
2023/03/09 09:14:01;;;;;;;5.07;0.80;;;;;;;;;;6100276;23;20100;-79
2023/03/09 09:16:30;;;;;;;3.67;0.98;;;;;;;;;;6098123;23;20041;-78
2023/03/09 09:18:57;;;;;;;6.05;0.70;;;;;;;;;;6121962;23;20037;-77
2023/03/09 09:21:28;;;;;;;4.95;1.42;;;;;;;;;;6117696;23;20034;-78
2023/03/09 09:23:55;;;;;;;5.95;0.95;;;;;;;;;;6121689;23;20060;-77
2023/03/09 09:26:23;;;;;;;1.63;0.80;;;;;;;;;;6122280;23;20068;-77
2023/03/09 09:28:50;;;;;;;4.57;0.70;;;;;;;;;;6122211;23;20030;-77
2023/03/09 09:31:19;;;;;;;3.00;0.55;;;;;;;;;;6121447;23;20073;-77
2023/03/09 09:33:46;;;;;;;3.35;0.60;;;;;;;;;;6098127;23;20484;-77
2023/03/09 09:36:15;;;;;;;3.20;1.77;;;;;;;;;;6123308;23;20034;-77
2023/03/09 09:38:42;;;;;;;1.20;0.43;;;;;;;;;;6124832;23;20060;-78
2023/03/09 09:41:31;;;;;;;2.13;1.25;;;;;;;;;;6124250;23;20030;-78
2023/03/09 09:44:03;;;;;;;4.20;1.02;;;;;;;;;;6123729;23;20642;-78
2023/03/09 09:46:31;;;;;;;3.63;0.85;;;;;;;;;;6124970;23;20029;-78
2023/03/09 09:48:59;;;;;;;1.48;0.60;;;;;;;;;;6123596;23;20084;-77
2023/03/09 09:51:48;;;;;;;3.35;0.60;;;;;;;;;;6100455;23;20025;-78
2023/03/09 09:54:24;;;;;;;2.92;0.57;;;;;;;;;;6122925;23;20029;-78
2023/03/09 09:56:58;;;;;;;3.92;0.88;;;;;;;;;;6124468;23;20036;-78
2023/03/09 09:59:39;;;;;;;4.43;0.70;;;;;;;;;;6123626;23;20036;-77
2023/03/09 10:02:09;;;;;;;3.13;0.65;;;;;;;;;;6082285;23;20032;-78
2023/03/09 10:04:56;;;;;;;3.83;0.98;;;;;;;;;;6129135;23;20083;-78
2023/03/09 10:07:23;;;;;;;1.50;0.50;;;;;;;;;;6107621;23;20036;-78
2023/03/09 10:09:56;;;;;;;2.90;0.80;;;;;;;;;;6081733;23;20025;-78
2023/03/09 10:12:23;;;;;;;;;;;;;;;;;;6108196;23;20057;-78
2023/03/09 10:15:14;;;;;;;1.83;0.50;;;;;;;;;;6107587;23;20345;-78
2023/03/09 10:17:54;;;;;;;1.80;0.60;;;;;;;;;;6107204;23;20030;-79
2023/03/09 10:20:23;;;;;;;4.93;0.60;;;;;;;;;;6130649;23;20029;-78
2023/03/09 10:22:53;;;;;;;4.60;1.30;;;;;;;;;;6106141;23;20025;-78
2023/03/09 10:25:22;;;;;;;2.35;0.70;;;;;;;;;;6130767;23;20076;-79
2023/03/09 10:28:06;;;;;;;3.20;0.80;;;;;;;;;;6130550;23;20036;-78
2023/03/09 10:30:53;;;;;;;3.25;0.75;;;;;;;;;;6109173;23;20039;-78
2023/03/09 10:33:29;;;;;;;5.40;0.60;;;;;;;;;;6131901;23;20048;-78
2023/03/09 10:36:02;;;;;;;4.22;0.73;;;;;;;;;;6131605;23;20025;-80
2023/03/09 10:38:29;;;;;;;2.58;1.13;;;;;;;;;;6105994;23;20057;-79
2023/03/09 10:40:57;;;;;;;3.83;0.68;;;;;;;;;;6131332;23;20108;-79
2023/03/09 10:43:29;;;;;;;2.67;0.65;;;;;;;;;;6110542;23;20053;-77
2023/03/09 10:46:09;;;;;;;1.08;0.52;;;;;;;;;;6134647;23;20069;-78
2023/03/09 10:48:36;;;;;;;0.98;0.40;;;;;;;;;;6088071;23;20364;-78
2023/03/09 10:51:05;;;;;;;3.75;0.47;;;;;;;;;;6108107;23;20830;-78
2023/03/09 10:53:51;;;;;;;3.53;0.80;;;;;;;;;;6109474;23;20069;-78
2023/03/09 10:56:22;;;;;;;1.98;0.50;;;;;;;;;;6112774;23;20450;-79
2023/03/09 10:59:10;;;;;;;0.70;0.50;;;;;;;;;;6139388;23;20029;-78
2023/03/09 11:01:43;;;;;;;3.92;0.60;;;;;;;;;;6101837;23;20089;-80
2023/03/09 11:04:30;;;;;;;;;;;;;;;;;;6113570;23;20104;-80
2023/03/09 11:07:28;;;;;;;1.70;0.50;;;;;;;;;;6119881;23;19924;-80
2023/03/09 11:09:55;;;;;;;3.40;1.00;;;;;;;;;;6104528;23;20049;-80
2023/03/09 11:12:36;;;;;;;2.95;0.75;;;;;;;;;;6110564;23;20025;-80
2023/03/09 11:15:28;;;;;;;5.80;0.80;;;;;;;;;;6111812;23;20033;-81
2023/03/09 11:17:57;;;;;;;3.25;0.80;;;;;;;;;;6134080;23;20025;-80
2023/03/09 11:20:33;;;;;;;3.63;0.85;;;;;;;;;;6109330;23;20033;-79
2023/03/09 11:23:27;;;;;;;4.97;0.80;;;;;;;;;;6111433;23;20061;-77
2023/03/09 11:26:19;;;;;;;3.60;0.73;;;;;;;;;;6134504;23;20029;-78
2023/03/09 11:29:24;;;;;;;5.60;1.05;;;;;;;;;;6134845;23;20028;-78
2023/03/09 11:31:53;;;;;;;5.45;0.95;;;;;;;;;;6135730;23;20022;-79
2023/03/09 11:34:36;;;;;;;2.17;0.65;;;;;;;;;;6110246;23;20341;-78
2023/03/09 11:37:23;;;;;;;5.32;0.75;;;;;;;;;;6108734;23;20104;-78
2023/03/09 11:40:10;;;;;;;5.43;1.75;;;;;;;;;;6130064;23;20061;-78
2023/03/09 11:42:39;;;;;;;6.43;1.60;;;;;;;;;;6108731;23;20084;-78
2023/03/09 11:45:15;;;;;;;4.63;0.88;;;;;;;;;;6129559;23;20025;-78
2023/03/09 11:47:52;;;;;;;4.53;0.90;;;;;;;;;;6105146;23;20061;-78
2023/03/09 11:50:42;;;;;;;7.18;0.90;;;;;;;;;;6129916;23;20773;-78
2023/03/09 11:53:13;;;;;;;2.55;0.77;;;;;;;;;;6158213;23;20025;-79
2023/03/09 11:55:46;;;;;;;3.92;0.70;;;;;;;;;;6132289;23;20017;-79
2023/03/09 11:58:23;;;;;;;1.45;0.40;;;;;;;;;;6108483;23;20124;-79
2023/03/09 12:00:53;;;;;;;5.43;0.63;;;;;;;;;;6118012;23;20036;-79
2023/03/09 12:03:20;;;;;;;2.97;0.65;;;;;;;;;;6076835;23;20117;-78
2023/03/09 12:05:53;;;;;;;2.63;0.52;;;;;;;;;;6054380;23;20109;-79
2023/03/09 12:08:41;;;;;;;0.88;0.32;;;;;;;;;;6076801;23;20393;-79
2023/03/09 12:11:28;;;;;;;2.53;0.50;;;;;;;;;;6077573;23;20439;-78
2023/03/09 12:14:02;;;;;;;2.30;0.40;;;;;;;;;;6080212;23;20437;-78
2023/03/09 12:16:33;;;;;;;1.80;0.40;;;;;;;;;;6078732;23;20034;-77
2023/03/09 12:19:05;;;;;;;2.15;0.43;;;;;;;;;;6078087;23;20057;-78
2023/03/09 12:21:56;;;;;;;2.97;0.60;;;;;;;;;;6101014;23;20038;-78
2023/03/09 12:24:44;;;;;;;3.55;0.50;;;;;;;;;;6068512;23;20051;-78
2023/03/09 12:27:10;;;;;;;1.88;0.63;;;;;;;;;;6076329;23;20025;-76
2023/03/09 12:29:50;;;;;;;2.25;0.50;;;;;;;;;;6122404;23;20030;-77
2023/03/09 12:32:21;;;;;;;3.92;0.68;;;;;;;;;;6103804;23;20069;-86
2023/03/09 12:34:50;;;;;;;3.70;1.10;;;;;;;;;;6092214;23;20029;-84
2023/03/09 12:37:38;;;;;;;1.50;0.50;;;;;;;;;;6112050;23;20036;-85
2023/03/09 12:40:15;;;;;;;2.83;0.77;;;;;;;;;;6119999;23;20026;-84
2023/03/09 12:42:47;;;;;;;0.57;0.40;;;;;;;;;;6138631;23;20053;-84
2023/03/09 12:45:16;;;;;;;2.55;0.70;;;;;;;;;;6067747;23;20018;-84
2023/03/09 12:48:20;;;;;;;2.25;0.55;;;;;;;;;;6111522;23;20132;-85
2023/03/09 12:50:54;;;;;;;3.17;1.02;;;;;;;;;;6089754;23;20030;-83
2023/03/09 12:53:25;;;;;;;3.75;0.90;;;;;;;;;;6063947;23;20057;-83
2023/03/09 12:55:53;;;;;;;3.85;0.95;;;;;;;;;;6066835;23;20452;-84
2023/03/09 12:58:22;;;;;;;2.25;0.80;;;;;;;;;;6061181;23;20535;-78
2023/03/09 13:00:59;;;;;;;4.43;0.80;;;;;;;;;;6104521;23;20034;-79
2023/03/09 13:03:42;;;;;;;2.97;1.02;;;;;;;;;;6104054;23;20029;-78
2023/03/09 13:06:46;;;;;;;2.70;0.70;;;;;;;;;;6082907;23;20599;-79
2023/03/09 13:09:13;;;;;;;2.47;0.90;;;;;;;;;;6105839;23;20061;-79
2023/03/09 13:11:58;;;;;;;3.60;0.95;;;;;;;;;;6105376;23;20040;-78
2023/03/09 13:14:25;;;;;;;4.00;0.98;;;;;;;;;;6101361;23;20415;-77
2023/03/09 13:16:56;;;;;;;4.47;0.77;;;;;;;;;;6101909;23;20040;-73
2023/03/09 13:19:23;;;;;;;2.88;0.80;;;;;;;;;;6077295;23;20034;-77
2023/03/09 13:21:56;;;;;;;2.70;0.65;;;;;;;;;;6102001;23;20100;-78
2023/03/09 13:24:38;;;;;;;4.30;0.68;;;;;;;;;;6104096;23;20041;-77
2023/03/09 13:27:08;;;;;;;2.78;0.80;;;;;;;;;;6083321;23;20033;-77
2023/03/09 13:30:16;;;;;;;1.90;0.65;;;;;;;;;;6104895;23;20036;-77
2023/03/09 13:32:55;;;;;;;4.57;0.63;;;;;;;;;;6103953;23;20033;-77
2023/03/09 13:35:54;;;;;;;3.38;0.80;;;;;;;;;;6102959;23;20044;-78
2023/03/09 13:38:31;;;;;;;5.80;0.77;;;;;;;;;;6061462;23;20026;-77
2023/03/09 13:40:59;;;;;;;5.72;1.08;;;;;;;;;;6056499;23;20026;-78
2023/03/09 13:43:31;;;;;;;4.43;1.08;;;;;;;;;;6055878;23;20100;-77
2023/03/09 13:46:06;;;;;;;3.20;0.98;;;;;;;;;;6072306;23;20010;-77
2023/03/09 13:48:35;;;;;;;4.03;0.93;;;;;;;;;;6116325;23;20088;-78
2023/03/09 13:51:01;;;;;;;3.88;1.00;;;;;;;;;;6060526;23;20032;-77
2023/03/09 13:53:28;;;;;;;2.92;0.90;;;;;;;;;;6060417;23;20029;-78
2023/03/09 13:56:05;;;;;;;4.10;1.30;;;;;;;;;;6083471;23;20090;-78
2023/03/09 13:58:41;;;;;;;4.22;1.38;;;;;;;;;;6059468;23;20081;-77
2023/03/09 14:01:22;;;;;;;3.17;1.30;;;;;;;;;;6082269;23;20041;-78
2023/03/09 14:03:50;;;;;;;3.65;0.90;;;;;;;;;;6083193;23;20547;-78
2023/03/09 14:06:34;;;;;;;3.13;0.70;;;;;;;;;;6058709;23;20021;-77
2023/03/09 14:09:24;;;;;;;;;;;;;;;;;;6092354;23;20345;-80
2023/03/09 14:11:51;;;;;;;4.47;1.08;;;;;;;;;;6107849;23;19948;-78
2023/03/09 14:14:22;;;;;;;4.78;0.90;;;;;;;;;;6082698;23;20515;-78
2023/03/09 14:16:50;;;;;;;2.70;0.70;;;;;;;;;;6103112;23;20072;-79
2023/03/09 14:19:27;;;;;;;2.72;0.70;;;;;;;;;;6060727;23;20034;-78
2023/03/09 14:21:54;;;;;;;3.03;0.68;;;;;;;;;;6061037;23;20041;-79
2023/03/09 14:24:31;;;;;;;4.35;0.80;;;;;;;;;;6082976;23;20050;-79
2023/03/09 14:27:20;;;;;;;5.20;1.25;;;;;;;;;;6106273;23;20239;-78
2023/03/09 14:29:47;;;;;;;4.30;1.80;;;;;;;;;;6085326;23;20032;-78
2023/03/09 14:32:22;;;;;;;4.55;0.95;;;;;;;;;;6061543;23;20061;-78
2023/03/09 14:34:52;;;;;;;3.50;0.70;;;;;;;;;;6108472;23;20108;-78
2023/03/09 14:37:27;;;;;;;3.88;0.70;;;;;;;;;;6061501;23;20029;-78
2023/03/09 14:39:56;;;;;;;4.95;1.00;;;;;;;;;;6060411;23;20036;-78
2023/03/09 14:42:27;;;;;;;3.05;0.68;;;;;;;;;;6102127;23;20056;-80
2023/03/09 14:45:12;;;;;;;5.70;0.73;;;;;;;;;;6110176;23;20033;-80
2023/03/09 14:47:40;;;;;;;4.22;1.85;;;;;;;;;;6161623;23;20463;-79
2023/03/09 14:50:14;;;;;;;4.70;1.00;;;;;;;;;;6135494;23;20061;-79
2023/03/09 14:52:41;;;;;;;2.63;1.10;;;;;;;;;;6111092;23;20086;-79
2023/03/09 14:55:24;;;;;;;3.17;0.82;;;;;;;;;;6110201;23;20029;-79
2023/03/09 14:57:51;;;;;;;2.88;0.70;;;;;;;;;;6111659;23;20067;-79
2023/03/09 15:00:24;;;;;;;3.75;0.70;;;;;;;;;;6112497;23;20368;-80
2023/03/09 15:02:51;;;;;;;4.13;0.73;;;;;;;;;;6112624;23;20321;-79
2023/03/09 15:05:22;;;;;;;3.25;0.77;;;;;;;;;;6104869;23;20104;-77